Time;durP1;ratioP1;P1;durP2;ratioP2;P2;SDS_P1;SDS_P2;PMS_P1;PMS_P2;Temp;Humidity;BMP_temperature;BMP_pressure;BME280_temperature;BME280_humidity;BME280_pressure;Samples;Min_cycle;Max_cycle;Signal;HPM_P1;HPM_P2
2021/10/06 00:01:09;;;;;;;2.30;1.42;;;11.00;99.90;;;;;;5057969;28;20150;-80
2021/10/06 00:03:35;;;;;;;3.15;2.83;;;11.00;99.90;;;;;;5040230;28;20040;-80
2021/10/06 00:06:00;;;;;;;2.17;1.65;;;11.00;99.90;;;;;;5053087;28;20040;-79
2021/10/06 00:08:26;;;;;;;1.60;1.20;;;10.90;99.90;;;;;;5056776;28;20394;-79
2021/10/06 00:10:52;;;;;;;1.08;0.98;;;10.90;99.90;;;;;;5051748;28;20037;-80
2021/10/06 00:13:18;;;;;;;2.90;1.80;;;10.80;99.90;;;;;;5053533;28;20468;-80
2021/10/06 00:15:45;;;;;;;3.00;1.35;;;10.70;99.90;;;;;;5051914;28;20048;-79
2021/10/06 00:18:12;;;;;;;1.17;1.08;;;10.60;99.90;;;;;;5066146;28;20390;-79
2021/10/06 00:20:38;;;;;;;1.98;1.77;;;10.60;99.90;;;;;;5058888;28;20063;-79
2021/10/06 00:23:04;;;;;;;;;;;10.60;99.90;;;;;;5073624;28;20040;-79
2021/10/06 00:25:30;;;;;;;2.67;1.92;;;10.50;99.90;;;;;;5044055;28;20058;-81
2021/10/06 00:27:56;;;;;;;2.17;1.52;;;10.50;99.90;;;;;;5065970;28;20064;-80
2021/10/06 00:30:21;;;;;;;2.28;1.73;;;10.40;99.90;;;;;;5059560;28;20093;-80
2021/10/06 00:32:47;;;;;;;18.42;1.63;;;10.40;99.90;;;;;;5068938;28;20429;-81
2021/10/06 00:35:14;;;;;;;2.28;1.70;;;10.40;99.90;;;;;;5060203;28;20425;-79
2021/10/06 00:37:40;;;;;;;1.88;1.48;;;10.30;99.90;;;;;;5045637;28;20045;-79
2021/10/06 00:40:07;;;;;;;2.17;1.58;;;10.30;99.90;;;;;;5050938;28;20090;-79
2021/10/06 00:42:33;;;;;;;7.47;1.88;;;10.30;99.90;;;;;;5065091;28;20398;-79
2021/10/06 00:44:59;;;;;;;3.13;1.80;;;10.20;99.90;;;;;;5063251;28;20045;-79
2021/10/06 00:47:25;;;;;;;1.88;1.67;;;10.20;99.90;;;;;;5054968;28;20098;-78
2021/10/06 00:49:50;;;;;;;1.80;1.33;;;10.20;99.90;;;;;;5040132;28;20607;-79
2021/10/06 00:52:17;;;;;;;1.40;1.30;;;10.10;99.90;;;;;;5060038;28;20044;-79
2021/10/06 00:54:43;;;;;;;1.60;1.50;;;10.10;99.90;;;;;;5059825;28;20056;-79
2021/10/06 00:57:11;;;;;;;3.55;2.13;;;10.10;99.90;;;;;;5053007;28;20066;-80
2021/10/06 00:59:37;;;;;;;1.58;1.40;;;10.10;99.90;;;;;;5052101;28;20056;-79
2021/10/06 01:02:03;;;;;;;5.05;2.78;;;10.00;99.90;;;;;;5078968;28;20041;-79
2021/10/06 01:04:30;;;;;;;2.80;1.98;;;10.10;99.90;;;;;;5077498;28;20028;-82
2021/10/06 01:06:55;;;;;;;3.53;2.45;;;10.00;99.90;;;;;;5056576;28;20032;-79
2021/10/06 01:09:28;;;;;;;4.82;1.95;;;10.00;99.90;;;;;;5052489;28;20041;-78
2021/10/06 01:11:55;;;;;;;1.27;1.17;;;10.00;99.90;;;;;;5066622;28;20040;-80
2021/10/06 01:14:22;;;;;;;1.25;1.15;;;10.00;99.90;;;;;;5055584;28;20045;-83
2021/10/06 01:16:50;;;;;;;2.70;1.90;;;10.00;99.90;;;;;;5058330;28;20040;-79
2021/10/06 01:19:24;;;;;;;1.67;1.20;;;10.00;99.90;;;;;;5054696;28;20488;-80
2021/10/06 01:21:51;;;;;;;2.42;1.35;;;10.00;99.90;;;;;;5064337;28;20116;-78
2021/10/06 01:24:17;;;;;;;1.85;0.95;;;10.00;99.90;;;;;;5065077;28;20045;-79
2021/10/06 01:26:44;;;;;;;0.85;0.85;;;10.00;99.90;;;;;;5061190;28;20083;-80
2021/10/06 01:29:10;;;;;;;1.10;1.02;;;10.00;99.90;;;;;;5058693;28;20371;-79
2021/10/06 01:31:36;;;;;;;1.20;1.10;;;10.10;99.90;;;;;;5046857;28;20067;-79
2021/10/06 01:34:02;;;;;;;2.03;1.17;;;10.10;99.90;;;;;;5066497;28;20442;-79
2021/10/06 01:36:28;;;;;;;1.13;1.02;;;10.10;99.90;;;;;;5047773;28;20041;-79
2021/10/06 01:38:54;;;;;;;1.17;1.08;;;10.10;99.90;;;;;;5058964;28;20037;-79
2021/10/06 01:41:19;;;;;;;1.10;0.75;;;10.20;99.90;;;;;;5061032;28;20044;-78
2021/10/06 01:43:45;;;;;;;1.52;1.27;;;10.30;99.90;;;;;;5058004;28;20048;-77
2021/10/06 01:46:11;;;;;;;1.00;1.00;;;10.30;99.90;;;;;;5056826;28;20041;-79
2021/10/06 01:48:37;;;;;;;1.17;1.08;;;10.40;99.90;;;;;;5057763;28;20088;-79
2021/10/06 01:51:03;;;;;;;2.50;0.90;;;10.40;99.90;;;;;;5034272;28;20041;-77
2021/10/06 01:53:39;;;;;;;1.42;1.33;;;10.40;99.90;;;;;;5059031;28;20070;-77
2021/10/06 01:56:05;;;;;;;3.47;1.90;;;10.40;99.90;;;;;;5067011;28;20048;-78
2021/10/06 01:58:31;;;;;;;1.63;1.05;;;10.40;99.90;;;;;;5052940;28;20053;-78
2021/10/06 02:00:57;;;;;;;1.83;1.02;;;10.40;99.90;;;;;;5057046;28;20048;-77
2021/10/06 02:03:23;;;;;;;0.93;0.90;;;10.30;99.90;;;;;;5051942;28;20045;-80
2021/10/06 02:05:49;;;;;;;1.55;1.38;;;10.30;99.90;;;;;;5058037;28;20044;-79
2021/10/06 02:08:16;;;;;;;0.80;0.80;;;10.30;99.90;;;;;;5071200;28;20036;-79
2021/10/06 02:10:43;;;;;;;1.42;1.33;;;10.30;99.90;;;;;;5055585;28;20049;-78
2021/10/06 02:13:09;;;;;;;0.70;0.70;;;10.20;99.90;;;;;;5053095;28;20037;-78
2021/10/06 02:15:35;;;;;;;0.93;0.93;;;10.20;99.90;;;;;;5063763;28;20076;-78
2021/10/06 02:18:01;;;;;;;1.50;1.27;;;10.20;99.90;;;;;;5054749;28;20040;-78
2021/10/06 02:20:28;;;;;;;2.55;1.35;;;10.30;99.90;;;;;;5052539;28;20111;-79
2021/10/06 02:22:54;;;;;;;1.55;1.00;;;10.40;99.90;;;;;;5055135;28;20075;-79
2021/10/06 02:25:20;;;;;;;;;;;10.40;99.90;;;;;;5065623;28;20388;-80
2021/10/06 02:27:46;;;;;;;0.88;0.88;;;10.40;99.90;;;;;;5055507;28;20012;-79
2021/10/06 02:30:13;;;;;;;2.28;1.17;;;10.50;99.90;;;;;;5064493;28;20072;-78
2021/10/06 02:32:39;;;;;;;3.38;1.77;;;10.40;99.90;;;;;;5052785;28;20098;-77
2021/10/06 02:35:11;;;;;;;3.53;1.70;;;10.50;99.90;;;;;;5052390;28;20374;-77
2021/10/06 02:37:38;;;;;;;2.45;1.10;;;10.50;99.90;;;;;;5045083;28;20502;-77
2021/10/06 02:40:06;;;;;;;1.27;0.82;;;10.50;99.90;;;;;;5050926;28;20045;-77
2021/10/06 02:42:32;;;;;;;1.50;1.23;;;10.50;99.90;;;;;;5050933;28;20041;-78
2021/10/06 02:44:58;;;;;;;2.00;1.80;;;10.50;99.90;;;;;;5060594;28;20037;-79
2021/10/06 02:47:23;;;;;;;1.77;1.50;;;10.50;99.90;;;;;;5060309;28;20540;-78
2021/10/06 02:49:49;;;;;;;1.35;1.10;;;10.50;99.90;;;;;;5060693;28;20040;-79
2021/10/06 02:52:16;;;;;;;6.97;2.45;;;10.50;99.90;;;;;;5057316;28;20044;-79
2021/10/06 02:54:41;;;;;;;;;;;10.50;99.90;;;;;;5058613;28;20094;-77
2021/10/06 02:57:07;;;;;;;0.98;0.98;;;10.50;99.90;;;;;;5059385;28;20227;-77
2021/10/06 02:59:34;;;;;;;1.80;1.60;;;10.60;99.90;;;;;;5055459;28;20128;-78
2021/10/06 03:02:00;;;;;;;1.98;1.30;;;10.50;99.90;;;;;;5060604;28;20060;-78
2021/10/06 03:04:26;;;;;;;1.00;0.77;;;10.50;99.90;;;;;;5058616;28;20497;-81
2021/10/06 03:06:52;;;;;;;1.20;0.98;;;10.50;99.90;;;;;;5049599;28;20043;-77
2021/10/06 03:09:18;;;;;;;3.30;1.17;;;10.50;99.90;;;;;;5060833;28;20043;-78
2021/10/06 03:11:43;;;;;;;2.88;1.98;;;10.50;99.90;;;;;;5047356;28;20045;-78
2021/10/06 03:14:10;;;;;;;0.98;0.93;;;10.50;99.90;;;;;;5051984;28;20056;-78
2021/10/06 03:16:36;;;;;;;1.77;1.67;;;10.50;99.90;;;;;;5061465;28;20052;-78
2021/10/06 03:19:02;;;;;;;3.05;1.67;;;10.50;99.90;;;;;;5042870;28;20165;-78
2021/10/06 03:21:28;;;;;;;1.58;1.38;;;10.50;99.90;;;;;;5068930;28;20048;-78
2021/10/06 03:23:54;;;;;;;3.75;1.63;;;10.50;99.90;;;;;;5060015;28;20136;-78
2021/10/06 03:26:20;;;;;;;3.55;2.17;;;10.50;99.90;;;;;;5046392;28;20506;-77
2021/10/06 03:28:46;;;;;;;2.35;2.05;;;10.50;99.90;;;;;;5067920;28;20601;-77
2021/10/06 03:31:12;;;;;;;8.88;2.17;;;10.50;99.90;;;;;;5069739;28;20123;-77
2021/10/06 03:33:37;;;;;;;1.60;1.35;;;10.50;99.90;;;;;;5068530;28;20040;-78
2021/10/06 03:36:03;;;;;;;2.20;1.60;;;10.50;99.90;;;;;;5053537;28;20052;-79
2021/10/06 03:38:29;;;;;;;4.32;2.67;;;10.60;99.90;;;;;;5065656;28;20113;-78
2021/10/06 03:40:55;;;;;;;1.33;1.23;;;10.60;99.90;;;;;;5051524;28;20041;-78
2021/10/06 03:43:21;;;;;;;2.13;1.98;;;10.60;99.90;;;;;;5034686;28;20479;-78
2021/10/06 03:45:47;;;;;;;;;;;10.70;99.90;;;;;;5064373;28;20451;-80
2021/10/06 03:48:13;;;;;;;1.48;1.38;;;10.70;99.90;;;;;;5057962;28;19988;-80
2021/10/06 03:50:39;;;;;;;2.67;2.28;;;10.70;99.90;;;;;;5061318;28;20048;-80
2021/10/06 03:53:05;;;;;;;3.40;1.73;;;10.70;99.90;;;;;;5068210;28;20049;-78
2021/10/06 03:55:31;;;;;;;4.15;1.85;;;10.70;99.90;;;;;;5056334;28;20051;-78
2021/10/06 03:57:57;;;;;;;5.57;2.35;;;10.70;99.90;;;;;;5063915;28;20064;-78
2021/10/06 04:00:23;;;;;;;2.13;1.52;;;10.70;99.90;;;;;;5051752;28;20065;-78
2021/10/06 04:02:49;;;;;;;4.97;3.05;;;10.80;99.90;;;;;;5061915;28;20059;-79
2021/10/06 04:05:14;;;;;;;3.28;2.40;;;10.80;99.90;;;;;;5058367;28;20494;-79
2021/10/06 04:07:40;;;;;;;2.50;1.58;;;10.80;99.90;;;;;;5056466;28;20029;-80
2021/10/06 04:10:07;;;;;;;4.30;2.33;;;11.20;99.90;;;;;;5061311;28;20475;-80
2021/10/06 04:12:33;;;;;;;4.82;2.80;;;10.70;99.90;;;;;;5055503;28;20048;-80
2021/10/06 04:14:58;;;;;;;3.55;2.03;;;10.60;99.90;;;;;;5054144;28;20055;-80
2021/10/06 04:17:24;;;;;;;3.47;2.35;;;10.60;99.90;;;;;;5058465;28;20048;-80
2021/10/06 04:19:50;;;;;;;3.00;2.00;;;10.50;99.90;;;;;;5056122;28;20049;-81
2021/10/06 04:22:16;;;;;;;2.38;1.75;;;10.50;99.90;;;;;;5065158;28;20378;-79
2021/10/06 04:24:41;;;;;;;5.80;3.17;;;10.50;99.90;;;;;;5063622;28;20344;-80
2021/10/06 04:27:07;;;;;;;2.75;2.08;;;10.50;99.90;;;;;;5061762;28;20037;-79
2021/10/06 04:29:34;;;;;;;4.72;2.85;;;10.50;99.90;;;;;;5044312;28;20041;-81
2021/10/06 04:31:59;;;;;;;2.15;1.95;;;10.50;99.90;;;;;;5054871;28;20052;-77
2021/10/06 04:34:25;;;;;;;1.63;1.52;;;10.50;99.90;;;;;;5059287;28;20386;-79
2021/10/06 04:36:51;;;;;;;2.58;2.22;;;10.50;99.90;;;;;;5033998;28;20499;-80
2021/10/06 04:39:16;;;;;;;2.08;1.90;;;10.50;99.90;;;;;;5067715;28;20101;-76
2021/10/06 04:41:42;;;;;;;2.13;1.92;;;10.50;99.90;;;;;;5057388;28;20521;-77
2021/10/06 04:44:08;;;;;;;1.83;1.25;;;10.50;99.90;;;;;;5075782;28;20485;-79
2021/10/06 04:46:34;;;;;;;1.55;1.45;;;10.50;99.90;;;;;;5064005;28;20059;-78
2021/10/06 04:49:01;;;;;;;1.52;1.35;;;10.50;99.90;;;;;;5050968;28;20044;-81
2021/10/06 04:51:28;;;;;;;3.20;1.70;;;10.50;99.90;;;;;;5040914;28;20045;-79
2021/10/06 04:53:53;;;;;;;;;;;10.40;99.90;;;;;;5060524;28;20057;-79
2021/10/06 04:56:19;;;;;;;10.20;1.85;;;10.40;99.90;;;;;;5053656;28;19924;-80
2021/10/06 04:58:45;;;;;;;2.28;1.83;;;10.40;99.90;;;;;;5060952;28;20056;-80
2021/10/06 05:01:10;;;;;;;2.83;1.77;;;10.40;99.90;;;;;;5047735;28;20049;-78
2021/10/06 05:03:36;;;;;;;1.38;1.27;;;10.40;99.90;;;;;;5060794;28;20147;-79
2021/10/06 05:06:02;;;;;;;2.33;1.02;;;10.40;99.90;;;;;;5053683;28;20041;-80
2021/10/06 05:08:27;;;;;;;2.17;1.45;;;10.40;99.90;;;;;;5062191;28;20078;-80
2021/10/06 05:10:53;;;;;;;2.40;1.70;;;10.40;99.90;;;;;;5052864;28;20114;-80
2021/10/06 05:13:19;;;;;;;;;;;10.40;99.90;;;;;;5053709;28;20565;-79
2021/10/06 05:15:45;;;;;;;1.52;1.27;;;10.40;99.90;;;;;;5061329;28;19916;-79
2021/10/06 05:18:10;;;;;;;1.52;0.93;;;10.40;99.90;;;;;;5061831;28;20115;-79
2021/10/06 05:20:36;;;;;;;1.58;1.23;;;10.50;99.90;;;;;;5060346;28;20080;-78
2021/10/06 05:23:02;;;;;;;1.65;0.95;;;10.40;99.90;;;;;;5039397;28;20035;-78
2021/10/06 05:25:28;;;;;;;0.77;0.77;;;10.40;99.90;;;;;;5036630;28;20140;-79
2021/10/06 05:27:54;;;;;;;1.85;1.58;;;10.40;99.90;;;;;;5029686;28;20059;-78
2021/10/06 05:30:20;;;;;;;2.13;1.40;;;10.50;99.90;;;;;;5053936;28;20040;-78
2021/10/06 05:32:50;;;;;;;;;;;10.50;99.90;;;;;;5071020;28;20386;-78
2021/10/06 05:35:17;;;;;;;1.83;1.13;;;10.50;99.90;;;;;;5052703;28;20016;-79
2021/10/06 05:37:44;;;;;;;1.80;1.48;;;10.40;99.90;;;;;;5046877;28;20047;-80
2021/10/06 05:40:10;;;;;;;1.77;1.33;;;10.40;99.90;;;;;;5054141;28;20049;-78
2021/10/06 05:42:36;;;;;;;1.85;0.85;;;10.40;99.90;;;;;;5040575;28;20040;-84
2021/10/06 05:45:02;;;;;;;1.10;1.00;;;10.40;99.90;;;;;;5065638;28;20037;-80
2021/10/06 05:47:28;;;;;;;1.65;1.25;;;10.50;99.90;;;;;;5063738;28;20040;-80
2021/10/06 05:49:54;;;;;;;1.20;1.05;;;10.50;99.90;;;;;;5057186;28;20448;-82
2021/10/06 05:52:21;;;;;;;1.50;1.40;;;10.50;99.90;;;;;;5058599;28;20124;-77
2021/10/06 05:54:48;;;;;;;2.88;2.08;;;10.50;99.90;;;;;;5062818;28;20099;-79
2021/10/06 05:57:14;;;;;;;1.02;0.93;;;10.40;99.90;;;;;;5058481;28;20051;-78
2021/10/06 05:59:40;;;;;;;0.90;0.80;;;10.50;99.90;;;;;;5054450;28;20061;-81
2021/10/06 06:02:06;;;;;;;3.30;1.92;;;10.40;99.90;;;;;;5045846;28;20047;-79
2021/10/06 06:04:32;;;;;;;;;;;10.40;99.90;;;;;;5051833;28;20039;-78
2021/10/06 06:06:58;;;;;;;1.40;1.20;;;10.40;99.90;;;;;;5049818;28;20377;-79
2021/10/06 06:09:24;;;;;;;1.70;1.60;;;10.40;99.90;;;;;;5052552;28;20119;-80
2021/10/06 06:11:50;;;;;;;2.10;1.52;;;10.40;99.90;;;;;;5026241;28;20750;-80
2021/10/06 06:14:16;;;;;;;2.45;1.60;;;10.40;99.90;;;;;;5053504;28;20121;-81
2021/10/06 06:16:42;;;;;;;4.88;1.85;;;10.40;99.90;;;;;;5056276;28;20095;-80
2021/10/06 06:19:08;;;;;;;2.13;1.65;;;10.50;99.90;;;;;;5065193;28;20041;-80
2021/10/06 06:21:33;;;;;;;2.17;1.48;;;10.50;99.90;;;;;;5051068;28;20075;-81
2021/10/06 06:23:59;;;;;;;2.58;1.35;;;10.50;99.90;;;;;;5045303;28;20044;-82
2021/10/06 06:26:25;;;;;;;3.28;1.95;;;10.50;99.90;;;;;;5056379;28;20072;-82
2021/10/06 06:28:51;;;;;;;1.58;1.45;;;10.50;99.90;;;;;;5050926;28;20041;-81
2021/10/06 06:31:19;;;;;;;3.70;2.03;;;10.50;99.90;;;;;;5063422;28;20072;-81
2021/10/06 06:33:46;;;;;;;2.67;1.73;;;10.50;99.90;;;;;;5031662;28;20091;-84
2021/10/06 06:36:15;;;;;;;2.70;1.65;;;10.50;99.90;;;;;;5070186;28;20036;-81
2021/10/06 06:38:40;;;;;;;1.73;1.63;;;10.40;99.90;;;;;;5051178;28;20105;-79
2021/10/06 06:41:06;;;;;;;2.00;1.23;;;10.40;99.90;;;;;;5055701;28;20091;-80
2021/10/06 06:43:32;;;;;;;2.17;1.80;;;10.40;99.90;;;;;;5062334;28;20040;-82
2021/10/06 06:45:58;;;;;;;11.30;1.50;;;10.40;99.90;;;;;;5060750;28;20082;-80
2021/10/06 06:48:23;;;;;;;6.95;1.88;;;10.40;99.90;;;;;;5048978;28;20099;-82
2021/10/06 06:50:53;;;;;;;4.10;1.58;;;10.40;99.90;;;;;;5056835;28;20390;-81
2021/10/06 06:53:22;;;;;;;1.77;1.60;;;10.40;99.90;;;;;;5064957;28;20049;-81
2021/10/06 06:55:48;;;;;;;1.73;1.20;;;10.50;99.90;;;;;;5035646;28;20127;-80
2021/10/06 06:58:15;;;;;;;1.23;0.95;;;10.50;99.90;;;;;;5059306;28;20669;-80
2021/10/06 07:00:41;;;;;;;1.77;1.58;;;10.60;99.90;;;;;;5057770;28;20048;-81
2021/10/06 07:03:06;;;;;;;2.42;1.50;;;10.70;99.90;;;;;;5050971;28;20041;-81
2021/10/06 07:05:32;;;;;;;5.82;1.27;;;10.70;99.90;;;;;;5071000;28;20446;-82
2021/10/06 07:07:58;;;;;;;4.97;1.92;;;10.80;99.90;;;;;;5049084;28;20048;-83
2021/10/06 07:10:23;;;;;;;1.05;0.98;;;10.90;99.90;;;;;;5063801;28;20052;-81
2021/10/06 07:12:49;;;;;;;2.05;1.80;;;10.90;99.90;;;;;;5035656;28;20044;-78
2021/10/06 07:15:16;;;;;;;4.70;1.40;;;11.00;99.90;;;;;;5061452;28;20052;-84
2021/10/06 07:17:41;;;;;;;2.72;1.77;;;11.00;99.90;;;;;;5066773;28;20050;-82
2021/10/06 07:20:08;;;;;;;1.85;1.58;;;11.10;99.90;;;;;;5045065;28;20032;-82
2021/10/06 07:22:34;;;;;;;2.22;1.17;;;11.10;99.90;;;;;;5048155;28;20157;-83
2021/10/06 07:25:01;;;;;;;2.58;1.88;;;11.10;99.90;;;;;;5070496;28;20044;-81
2021/10/06 07:27:27;;;;;;;1.13;1.00;;;11.20;99.90;;;;;;5059091;28;20563;-81
2021/10/06 07:29:52;;;;;;;2.42;1.52;;;11.70;99.90;;;;;;5058569;28;20076;-78
2021/10/06 07:32:18;;;;;;;1.48;1.05;;;11.30;99.90;;;;;;5052523;28;20056;-78
2021/10/06 07:34:44;;;;;;;1.05;0.95;;;11.30;99.90;;;;;;5053927;28;20044;-80
2021/10/06 07:37:10;;;;;;;2.70;1.85;;;11.30;99.90;;;;;;5064219;28;20051;-79
2021/10/06 07:39:35;;;;;;;1.77;1.30;;;11.40;99.90;;;;;;5050399;28;20044;-78
2021/10/06 07:42:01;;;;;;;1.50;1.40;;;11.40;99.90;;;;;;5052572;28;20042;-79
2021/10/06 07:44:27;;;;;;;;;;;11.50;99.90;;;;;;5053464;28;20056;-79
2021/10/06 07:46:53;;;;;;;2.10;1.50;;;11.60;99.90;;;;;;5038329;28;19921;-78
2021/10/06 07:49:18;;;;;;;0.90;0.90;;;11.60;99.90;;;;;;5040191;28;20044;-78
2021/10/06 07:51:45;;;;;;;0.73;0.73;;;11.70;99.90;;;;;;5061231;28;20076;-79
2021/10/06 07:54:10;;;;;;;2.08;1.42;;;11.70;99.90;;;;;;5063836;28;20040;-80
2021/10/06 07:56:36;;;;;;;1.30;1.20;;;11.80;99.90;;;;;;5048820;28;20863;-79
2021/10/06 07:59:02;;;;;;;2.95;0.90;;;11.90;99.90;;;;;;5051537;28;20052;-79
2021/10/06 08:01:28;;;;;;;1.23;1.13;;;12.00;99.90;;;;;;5060697;28;20041;-77
2021/10/06 08:03:54;;;;;;;1.42;1.33;;;12.10;99.90;;;;;;5059343;28;20151;-79
2021/10/06 08:06:20;;;;;;;1.25;1.15;;;12.20;99.90;;;;;;5061578;28;20046;-82
2021/10/06 08:08:46;;;;;;;1.25;1.15;;;12.20;99.90;;;;;;5052971;28;20116;-80
2021/10/06 08:11:11;;;;;;;;;;;12.30;99.90;;;;;;5068969;28;20044;-82
2021/10/06 08:13:37;;;;;;;4.22;1.08;;;12.40;99.90;;;;;;5064318;28;19975;-79
2021/10/06 08:16:03;;;;;;;1.42;1.33;;;12.30;99.90;;;;;;5065388;28;20032;-82
2021/10/06 08:18:29;;;;;;;;;;;12.30;99.90;;;;;;5063023;28;20072;-81
2021/10/06 08:20:56;;;;;;;1.55;1.45;;;12.30;99.90;;;;;;5052996;28;20010;-79
2021/10/06 08:23:22;;;;;;;1.60;1.10;;;12.20;99.90;;;;;;5049262;28;20075;-81
2021/10/06 08:25:48;;;;;;;;;;;12.20;99.90;;;;;;5053569;28;20045;-80
2021/10/06 08:28:15;;;;;;;0.73;0.73;;;12.20;99.90;;;;;;5048691;28;19921;-81
2021/10/06 08:30:41;;;;;;;;;;;12.30;99.90;;;;;;5041109;28;20486;-82
2021/10/06 08:33:07;;;;;;;1.17;0.90;;;12.10;99.90;;;;;;5055253;28;19971;-83
2021/10/06 08:35:33;;;;;;;1.38;1.27;;;12.10;99.90;;;;;;5053814;28;20577;-83
2021/10/06 08:38:01;;;;;;;2.35;1.58;;;12.00;99.90;;;;;;5082866;28;20046;-78
2021/10/06 08:40:28;;;;;;;1.50;1.08;;;12.00;99.90;;;;;;5053954;28;20048;-80
2021/10/06 08:42:56;;;;;;;0.93;0.90;;;12.00;99.90;;;;;;5068033;28;20129;-78
2021/10/06 08:45:22;;;;;;;0.63;0.63;;;12.00;99.90;;;;;;5051505;28;20455;-81
2021/10/06 08:47:48;;;;;;;1.38;1.27;;;12.10;99.90;;;;;;5051509;28;20040;-80
2021/10/06 08:50:19;;;;;;;1.00;1.00;;;12.10;99.90;;;;;;5040165;28;20123;-77
2021/10/06 08:52:50;;;;;;;0.95;0.88;;;12.10;99.90;;;;;;5056089;28;20049;-76
2021/10/06 08:55:17;;;;;;;2.58;0.98;;;12.20;99.90;;;;;;5065097;28;20048;-79
2021/10/06 08:57:43;;;;;;;1.05;0.65;;;12.10;99.90;;;;;;5055239;28;20068;-79
2021/10/06 09:00:11;;;;;;;1.35;0.90;;;12.10;99.90;;;;;;5058214;28;20048;-79
2021/10/06 09:02:42;;;;;;;1.65;1.33;;;12.10;99.90;;;;;;5057626;28;20091;-79
2021/10/06 09:05:10;;;;;;;0.82;0.82;;;12.20;99.90;;;;;;5049933;28;20044;-76
2021/10/06 09:07:54;;;;;;;0.88;0.88;;;12.20;99.90;;;;;;5057046;28;20045;-75
2021/10/06 09:10:21;;;;;;;1.38;1.20;;;12.30;99.90;;;;;;5065250;28;20100;-76
2021/10/06 09:12:58;;;;;;;2.75;1.40;;;12.30;99.90;;;;;;5056526;28;20048;-77
2021/10/06 09:15:25;;;;;;;0.95;0.80;;;12.40;99.90;;;;;;5057962;28;20064;-79
2021/10/06 09:17:57;;;;;;;1.45;1.02;;;12.50;99.90;;;;;;5054595;28;20616;-81
2021/10/06 09:20:36;;;;;;;2.63;1.27;;;12.70;99.90;;;;;;5037187;28;20055;-80
2021/10/06 09:23:08;;;;;;;3.63;1.45;;;12.90;99.90;;;;;;5059035;28;20504;-78
2021/10/06 09:25:56;;;;;;;1.63;1.35;;;13.00;99.90;;;;;;5040144;28;20074;-79
2021/10/06 09:28:30;;;;;;;2.20;1.20;;;13.20;99.90;;;;;;5058560;28;20044;-79
2021/10/06 09:31:00;;;;;;;1.20;1.05;;;13.20;99.90;;;;;;5061790;28;20057;-81
2021/10/06 09:33:43;;;;;;;2.15;1.00;;;13.30;99.90;;;;;;5058613;28;20045;-82
2021/10/06 09:36:11;;;;;;;9.75;1.00;;;13.50;99.90;;;;;;5052736;28;20109;-81
2021/10/06 09:38:39;;;;;;;3.08;1.10;;;13.70;99.90;;;;;;5055989;28;20119;-78
2021/10/06 09:41:33;;;;;;;0.98;0.88;;;13.80;99.90;;;;;;5049940;28;20059;-75
2021/10/06 09:44:13;;;;;;;8.15;1.13;;;13.80;99.90;;;;;;5062765;28;20041;-77
2021/10/06 09:46:52;;;;;;;2.88;1.58;;;13.60;99.90;;;;;;5045919;28;20041;-78
2021/10/06 09:49:24;;;;;;;1.70;1.50;;;13.50;99.90;;;;;;5049505;28;20048;-79
2021/10/06 09:51:51;;;;;;;0.88;0.80;;;13.40;99.90;;;;;;5059972;28;20037;-80
2021/10/06 09:54:18;;;;;;;1.33;1.05;;;13.50;99.90;;;;;;5051911;28;20080;-79
2021/10/06 09:56:46;;;;;;;0.88;0.82;;;13.60;99.90;;;;;;5049263;28;20072;-78
2021/10/06 09:59:13;;;;;;;2.92;1.77;;;13.70;99.90;;;;;;5053491;28;20064;-80
2021/10/06 10:01:41;;;;;;;1.50;1.23;;;13.90;99.90;;;;;;5058631;28;20056;-79
2021/10/06 10:04:09;;;;;;;2.20;1.15;;;13.90;99.90;;;;;;5066875;28;20055;-79
2021/10/06 10:06:35;;;;;;;1.35;1.00;;;13.90;99.90;;;;;;5050594;28;20045;-79
2021/10/06 10:09:02;;;;;;;0.77;0.77;;;13.90;99.90;;;;;;5051769;28;20037;-80
2021/10/06 10:11:30;;;;;;;1.05;1.00;;;13.90;99.90;;;;;;5060955;28;20052;-78
2021/10/06 10:13:56;;;;;;;1.15;0.90;;;14.00;99.90;;;;;;5036895;28;20102;-79
2021/10/06 10:16:22;;;;;;;1.05;0.95;;;14.00;99.90;;;;;;5059023;28;20044;-78
2021/10/06 10:18:49;;;;;;;1.63;1.30;;;14.10;99.90;;;;;;5050128;28;20123;-77
2021/10/06 10:21:15;;;;;;;1.02;0.82;;;14.10;99.90;;;;;;5055300;28;20146;-81
2021/10/06 10:23:41;;;;;;;;;;;14.20;99.90;;;;;;5066440;28;20049;-78
2021/10/06 10:26:22;;;;;;;0.88;0.88;;;14.20;99.90;;;;;;5058728;28;19920;-78
2021/10/06 10:28:48;;;;;;;1.95;1.15;;;14.30;99.90;;;;;;5050927;28;20048;-79
2021/10/06 10:31:17;;;;;;;1.35;0.88;;;14.30;99.90;;;;;;5055312;28;20045;-78
2021/10/06 10:33:45;;;;;;;1.85;1.10;;;14.30;99.90;;;;;;5065163;28;20131;-78
2021/10/06 10:36:32;;;;;;;0.70;0.70;;;14.40;99.90;;;;;;5069422;28;20041;-77
2021/10/06 10:38:59;;;;;;;0.80;0.80;;;14.60;99.90;;;;;;5049939;28;20056;-80
2021/10/06 10:42:00;;;;;;;1.63;1.10;;;14.60;99.90;;;;;;5065292;28;20489;-78
2021/10/06 10:44:34;;;;;;;1.17;1.08;;;14.60;99.90;;;;;;5007631;28;20055;-78
2021/10/06 10:47:03;;;;;;;1.17;0.77;;;14.60;99.90;;;;;;5031445;28;20053;-80
2021/10/06 10:49:46;;;;;;;1.00;0.90;;;14.50;99.90;;;;;;5051512;28;20106;-78
2021/10/06 10:52:12;;;;;;;1.40;1.30;;;14.40;99.90;;;;;;5067589;28;20044;-76
2021/10/06 10:54:39;;;;;;;;;;;14.40;99.90;;;;;;5061461;28;20044;-80
2021/10/06 10:57:25;;;;;;;1.33;1.10;;;14.40;99.90;;;;;;5048640;28;19960;-78
2021/10/06 10:59:57;;;;;;;0.80;0.80;;;14.60;99.90;;;;;;5054225;28;20132;-80
2021/10/06 11:02:32;;;;;;;1.20;1.05;;;14.90;99.90;;;;;;5062637;28;20049;-78
2021/10/06 11:05:03;;;;;;;1.27;1.17;;;15.00;99.90;;;;;;5060944;28;20102;-78
2021/10/06 11:07:30;;;;;;;0.80;0.80;;;15.10;99.90;;;;;;5050094;28;20037;-79
2021/10/06 11:10:16;;;;;;;1.63;1.20;;;15.20;99.90;;;;;;5064057;28;20091;-80
2021/10/06 11:12:54;;;;;;;2.50;1.77;;;15.40;99.90;;;;;;5068504;28;20177;-78
2021/10/06 11:15:19;;;;;;;1.98;1.30;;;15.50;99.90;;;;;;5061090;28;20060;-79
2021/10/06 11:18:08;;;;;;;1.48;0.82;;;15.50;99.90;;;;;;5065842;28;20056;-80
2021/10/06 11:20:51;;;;;;;1.00;0.90;;;15.40;99.90;;;;;;5055042;28;20041;-79
2021/10/06 11:23:35;;;;;;;1.00;0.90;;;15.50;99.90;;;;;;5066733;28;20076;-78
2021/10/06 11:26:05;;;;;;;2.80;1.30;;;15.50;99.90;;;;;;5042107;28;20060;-80
2021/10/06 11:28:35;;;;;;;2.38;1.55;;;15.60;99.90;;;;;;5063771;28;20094;-80
2021/10/06 11:31:01;;;;;;;3.17;1.17;;;15.80;99.90;;;;;;5057724;28;20542;-79
2021/10/06 11:33:27;;;;;;;0.88;0.73;;;15.80;99.90;;;;;;5048396;28;20136;-79
2021/10/06 11:36:25;;;;;;;1.58;1.02;;;15.80;99.90;;;;;;5051913;28;20106;-78
2021/10/06 11:39:04;;;;;;;3.10;1.05;;;15.90;99.90;;;;;;5063614;28;20407;-78
2021/10/06 11:41:29;;;;;;;0.93;0.80;;;16.10;99.90;;;;;;5057359;28;20391;-81
2021/10/06 11:43:56;;;;;;;0.65;0.65;;;16.10;99.90;;;;;;5047906;28;20201;-79
2021/10/06 11:46:32;;;;;;;2.40;1.33;;;16.10;99.90;;;;;;5049575;28;20489;-79
2021/10/06 11:48:59;;;;;;;;;;;16.20;99.90;;;;;;5052552;28;20048;-80
2021/10/06 11:51:46;;;;;;;1.83;1.38;;;16.50;99.90;;;;;;5055901;28;19920;-79
2021/10/06 11:54:14;;;;;;;2.10;1.05;;;16.80;99.90;;;;;;5049124;28;20056;-79
2021/10/06 11:56:40;;;;;;;0.88;0.85;;;16.90;99.90;;;;;;5041198;28;20032;-80
2021/10/06 11:59:27;;;;;;;0.70;0.70;;;17.00;99.90;;;;;;5061303;28;20082;-80
2021/10/06 12:02:00;;;;;;;0.80;0.80;;;17.10;99.90;;;;;;5067814;28;20060;-79
2021/10/06 12:04:28;;;;;;;4.18;1.10;;;17.10;99.90;;;;;;5055297;28;20048;-80
2021/10/06 12:07:00;;;;;;;0.98;0.80;;;17.10;99.90;;;;;;5051508;28;20094;-80
2021/10/06 12:09:50;;;;;;;1.00;0.80;;;17.10;99.90;;;;;;5065598;28;20045;-80
2021/10/06 12:12:18;;;;;;;0.77;0.70;;;17.00;99.90;;;;;;5042193;28;20110;-80
2021/10/06 12:14:57;;;;;;;1.00;0.80;;;16.80;99.90;;;;;;5067529;28;20045;-80
2021/10/06 12:17:28;;;;;;;1.00;0.90;;;16.50;99.90;;;;;;5070729;28;20033;-80
2021/10/06 12:20:06;;;;;;;0.50;0.50;;;16.30;99.90;;;;;;5067990;28;20071;-80
2021/10/06 12:22:40;;;;;;;1.63;1.45;;;16.20;99.90;;;;;;5059499;28;20178;-79
2021/10/06 12:25:17;;;;;;;2.05;1.25;;;16.00;99.90;;;;;;5054066;28;20474;-80
2021/10/06 12:27:51;;;;;;;0.60;0.60;;;15.80;99.90;;;;;;5055365;28;20040;-79
2021/10/06 12:30:22;;;;;;;1.13;1.00;;;15.60;99.90;;;;;;5063135;28;20045;-80
2021/10/06 12:32:50;;;;;;;0.95;0.95;;;15.50;99.90;;;;;;5051395;28;20044;-80
2021/10/06 12:35:21;;;;;;;1.10;1.00;;;15.30;99.90;;;;;;5053762;28;20049;-79
2021/10/06 12:37:58;;;;;;;1.40;1.00;;;15.30;99.90;;;;;;5070717;28;20048;-79
2021/10/06 12:40:36;;;;;;;0.80;0.70;;;15.20;99.90;;;;;;5049873;28;20085;-79
2021/10/06 12:43:04;;;;;;;1.00;0.85;;;15.10;99.90;;;;;;5062358;28;20478;-78
2021/10/06 12:45:31;;;;;;;7.72;1.25;;;15.10;99.90;;;;;;5080217;28;20075;-79
2021/10/06 12:47:58;;;;;;;0.80;0.80;;;15.00;99.90;;;;;;5056223;28;20071;-78
2021/10/06 12:50:23;;;;;;;1.05;0.93;;;14.90;99.90;;;;;;5069206;28;20083;-79
2021/10/06 12:52:49;;;;;;;0.80;0.80;;;15.00;99.90;;;;;;5059065;28;20080;-78
2021/10/06 12:55:15;;;;;;;1.13;0.95;;;15.10;99.90;;;;;;5059223;28;20124;-79